Airfield :
LOGIN :

Register | Disclaimer

   EN    FR    IT 

 










Legend :    VFR   Marginal VFR   IFR   Intensive IFR   Very Intensive IFR
Visi :
Ceiling :
>= 8 km
>= 3000ft
5 to 8 km
1000 to 3000 ft
1500m to 5 km
500 to 1000 ft
800 to 1500m
200 to 500 ft
< 800m
< 200 ft
Symbols :   Thunderstorms  Fog  Heavy snow  Heavy precipitations  Wind > 20 kt
SIGMETs :     Misc.  Thunderstorms  Icing  Turbulence  Mountain Waves  Volcanic Ashes







- Airport Elevation : 425 ft
- IATA code : DTM


EDLW - Dortmund

CURRENT METAR :
  • 190950Z 25014KT 220V280 9999 SCT018 SCT021 08/04 Q1018

EXPIRED METARs :
  • 190920Z 24012KT 9999 BKN017 08/04 Q1018
  • 190850Z 25010KT 9999 BKN016 07/04 Q1018
  • 190820Z 25011KT 9999 BKN016 BKN047 07/04 Q1018
  • 190750Z 25010KT 220V280 9999 BKN015 07/04 Q1017
  • 190720Z 24008KT 9999 SCT015 07/04 Q1017

TAF TAF EDLW
Valid from the 19 at 06:00 until the 20 at 06:00 UTC


190500Z 1906/2006 23012KT 9999 BKN020
TEMPO 1906/1910 BKN010
BECMG 1916/1919 23007KT
No reported NOTAMs for that airfield.



MET'MAP, your aeronautical weather chart ! - Copyright ORBIFLY December 2007 - Disclaimer

ORBIFLY MET'MAP TEAM :

Programming & Development : Alexandra Zaïnal
Concept & Development : Baudouin d'Aumeries
Co-Development & Prog : Marc-Olivier Méhu
Technical & hardware support : Manuel Goepfert

Contact : metmap@orbifly.com




SOURCES & CREDITS :

   NOAA